sensor_id;sensor_type;location;lat;lon;timestamp;P1;durP1;ratioP1;P2;durP2;ratioP2
10945;SDS011;5525;42.648;23.368;2024-01-16T00:02:16;12.57;;;8.88;;
10945;SDS011;5525;42.648;23.368;2024-01-16T00:04:44;16.42;;;9.82;;
10945;SDS011;5525;42.648;23.368;2024-01-16T00:07:11;16.85;;;10.00;;
10945;SDS011;5525;42.648;23.368;2024-01-16T00:09:38;15.57;;;9.60;;
10945;SDS011;5525;42.648;23.368;2024-01-16T00:12:05;13.18;;;8.70;;
10945;SDS011;5525;42.648;23.368;2024-01-16T00:14:34;16.98;;;10.18;;
10945;SDS011;5525;42.648;23.368;2024-01-16T00:17:02;16.17;;;9.90;;
10945;SDS011;5525;42.648;23.368;2024-01-16T00:19:29;22.90;;;11.02;;
10945;SDS011;5525;42.648;23.368;2024-01-16T00:21:57;17.73;;;9.13;;
10945;SDS011;5525;42.648;23.368;2024-01-16T00:24:25;14.18;;;8.20;;
10945;SDS011;5525;42.648;23.368;2024-01-16T00:26:52;13.75;;;8.82;;
10945;SDS011;5525;42.648;23.368;2024-01-16T00:29:18;13.77;;;8.93;;
10945;SDS011;5525;42.648;23.368;2024-01-16T00:31:45;15.50;;;9.10;;
10945;SDS011;5525;42.648;23.368;2024-01-16T00:34:12;16.40;;;9.50;;
10945;SDS011;5525;42.648;23.368;2024-01-16T00:36:39;13.77;;;8.90;;
10945;SDS011;5525;42.648;23.368;2024-01-16T00:39:07;13.95;;;9.05;;
10945;SDS011;5525;42.648;23.368;2024-01-16T00:41:33;15.82;;;9.55;;
10945;SDS011;5525;42.648;23.368;2024-01-16T00:44:00;14.93;;;8.80;;
10945;SDS011;5525;42.648;23.368;2024-01-16T00:46:26;15.10;;;8.75;;
10945;SDS011;5525;42.648;23.368;2024-01-16T00:48:54;14.65;;;8.57;;
10945;SDS011;5525;42.648;23.368;2024-01-16T00:51:21;15.65;;;8.77;;
10945;SDS011;5525;42.648;23.368;2024-01-16T00:53:48;18.48;;;8.70;;
10945;SDS011;5525;42.648;23.368;2024-01-16T00:56:16;13.32;;;8.65;;
10945;SDS011;5525;42.648;23.368;2024-01-16T00:58:41;14.77;;;8.75;;
10945;SDS011;5525;42.648;23.368;2024-01-16T01:01:08;12.45;;;8.35;;
10945;SDS011;5525;42.648;23.368;2024-01-16T01:03:35;13.40;;;9.10;;
10945;SDS011;5525;42.648;23.368;2024-01-16T01:06:02;12.25;;;8.52;;
10945;SDS011;5525;42.648;23.368;2024-01-16T01:08:28;12.98;;;8.43;;
10945;SDS011;5525;42.648;23.368;2024-01-16T01:10:55;11.23;;;7.97;;
10945;SDS011;5525;42.648;23.368;2024-01-16T01:13:23;16.33;;;9.25;;
10945;SDS011;5525;42.648;23.368;2024-01-16T01:15:51;13.95;;;8.57;;
10945;SDS011;5525;42.648;23.368;2024-01-16T01:18:26;12.18;;;8.27;;
10945;SDS011;5525;42.648;23.368;2024-01-16T01:20:58;16.40;;;8.88;;
10945;SDS011;5525;42.648;23.368;2024-01-16T01:23:25;15.20;;;9.35;;
10945;SDS011;5525;42.648;23.368;2024-01-16T01:25:51;13.35;;;8.95;;
10945;SDS011;5525;42.648;23.368;2024-01-16T01:28:18;11.40;;;8.07;;
10945;SDS011;5525;42.648;23.368;2024-01-16T01:30:47;13.35;;;7.97;;
10945;SDS011;5525;42.648;23.368;2024-01-16T01:33:13;12.85;;;8.50;;
10945;SDS011;5525;42.648;23.368;2024-01-16T01:35:40;13.52;;;8.82;;
10945;SDS011;5525;42.648;23.368;2024-01-16T01:38:07;11.77;;;8.13;;
10945;SDS011;5525;42.648;23.368;2024-01-16T01:40:34;13.68;;;8.57;;
10945;SDS011;5525;42.648;23.368;2024-01-16T01:46:03;13.02;;;8.85;;
10945;SDS011;5525;42.648;23.368;2024-01-16T01:48:36;16.05;;;8.68;;
10945;SDS011;5525;42.648;23.368;2024-01-16T01:51:03;14.85;;;8.65;;
10945;SDS011;5525;42.648;23.368;2024-01-16T01:53:31;12.75;;;8.57;;
10945;SDS011;5525;42.648;23.368;2024-01-16T01:56:00;13.15;;;8.38;;
10945;SDS011;5525;42.648;23.368;2024-01-16T01:58:30;11.38;;;6.82;;
10945;SDS011;5525;42.648;23.368;2024-01-16T02:00:57;11.05;;;7.97;;
10945;SDS011;5525;42.648;23.368;2024-01-16T02:03:27;11.60;;;7.78;;
10945;SDS011;5525;42.648;23.368;2024-01-16T02:05:55;10.00;;;6.95;;
10945;SDS011;5525;42.648;23.368;2024-01-16T02:08:22;12.45;;;6.82;;
10945;SDS011;5525;42.648;23.368;2024-01-16T02:10:50;9.32;;;6.57;;
10945;SDS011;5525;42.648;23.368;2024-01-16T02:13:18;13.07;;;7.28;;
10945;SDS011;5525;42.648;23.368;2024-01-16T02:15:48;12.00;;;8.43;;
10945;SDS011;5525;42.648;23.368;2024-01-16T02:18:16;11.73;;;7.55;;
10945;SDS011;5525;42.648;23.368;2024-01-16T02:20:44;11.05;;;7.00;;
10945;SDS011;5525;42.648;23.368;2024-01-16T02:23:12;10.98;;;7.45;;
10945;SDS011;5525;42.648;23.368;2024-01-16T02:25:42;11.02;;;6.40;;
10945;SDS011;5525;42.648;23.368;2024-01-16T02:28:10;11.02;;;6.50;;
10945;SDS011;5525;42.648;23.368;2024-01-16T02:30:37;10.30;;;6.80;;
10945;SDS011;5525;42.648;23.368;2024-01-16T02:33:04;11.07;;;6.72;;
10945;SDS011;5525;42.648;23.368;2024-01-16T02:35:30;9.48;;;6.80;;
10945;SDS011;5525;42.648;23.368;2024-01-16T02:37:57;8.30;;;5.93;;
10945;SDS011;5525;42.648;23.368;2024-01-16T02:40:25;12.27;;;7.68;;
10945;SDS011;5525;42.648;23.368;2024-01-16T02:42:53;9.32;;;6.60;;
10945;SDS011;5525;42.648;23.368;2024-01-16T02:45:21;8.25;;;5.63;;
10945;SDS011;5525;42.648;23.368;2024-01-16T02:47:47;9.18;;;5.82;;
10945;SDS011;5525;42.648;23.368;2024-01-16T02:50:14;9.23;;;5.97;;
10945;SDS011;5525;42.648;23.368;2024-01-16T02:52:41;10.15;;;6.07;;
10945;SDS011;5525;42.648;23.368;2024-01-16T02:55:08;9.88;;;6.40;;
10945;SDS011;5525;42.648;23.368;2024-01-16T02:57:35;8.48;;;6.00;;
10945;SDS011;5525;42.648;23.368;2024-01-16T03:00:03;8.70;;;6.03;;
10945;SDS011;5525;42.648;23.368;2024-01-16T03:02:32;7.38;;;5.57;;
10945;SDS011;5525;42.648;23.368;2024-01-16T03:04:59;10.13;;;6.40;;
10945;SDS011;5525;42.648;23.368;2024-01-16T03:07:26;10.15;;;6.97;;
10945;SDS011;5525;42.648;23.368;2024-01-16T03:09:53;11.23;;;7.50;;
10945;SDS011;5525;42.648;23.368;2024-01-16T03:12:20;11.65;;;8.07;;
10945;SDS011;5525;42.648;23.368;2024-01-16T03:14:46;11.10;;;7.28;;
10945;SDS011;5525;42.648;23.368;2024-01-16T03:17:14;10.98;;;7.93;;
10945;SDS011;5525;42.648;23.368;2024-01-16T03:19:42;11.25;;;7.60;;
10945;SDS011;5525;42.648;23.368;2024-01-16T03:22:09;12.10;;;6.90;;
10945;SDS011;5525;42.648;23.368;2024-01-16T03:24:36;11.18;;;6.60;;
10945;SDS011;5525;42.648;23.368;2024-01-16T03:27:02;11.63;;;7.68;;
10945;SDS011;5525;42.648;23.368;2024-01-16T03:29:30;9.68;;;6.63;;
10945;SDS011;5525;42.648;23.368;2024-01-16T03:31:58;7.85;;;5.85;;
10945;SDS011;5525;42.648;23.368;2024-01-16T03:34:27;9.57;;;5.70;;
10945;SDS011;5525;42.648;23.368;2024-01-16T03:36:54;7.55;;;5.32;;
10945;SDS011;5525;42.648;23.368;2024-01-16T03:39:20;6.47;;;4.70;;
10945;SDS011;5525;42.648;23.368;2024-01-16T03:41:47;6.97;;;4.43;;
10945;SDS011;5525;42.648;23.368;2024-01-16T03:44:14;5.82;;;4.30;;
10945;SDS011;5525;42.648;23.368;2024-01-16T03:46:41;4.35;;;3.95;;
10945;SDS011;5525;42.648;23.368;2024-01-16T03:49:08;4.70;;;4.05;;
10945;SDS011;5525;42.648;23.368;2024-01-16T03:51:36;4.55;;;3.95;;
10945;SDS011;5525;42.648;23.368;2024-01-16T03:54:03;4.45;;;3.15;;
10945;SDS011;5525;42.648;23.368;2024-01-16T03:56:29;4.60;;;3.95;;
10945;SDS011;5525;42.648;23.368;2024-01-16T03:58:56;4.20;;;3.60;;
10945;SDS011;5525;42.648;23.368;2024-01-16T04:01:29;4.15;;;3.55;;
10945;SDS011;5525;42.648;23.368;2024-01-16T04:03:57;3.85;;;3.28;;
10945;SDS011;5525;42.648;23.368;2024-01-16T04:06:24;3.97;;;3.58;;
10945;SDS011;5525;42.648;23.368;2024-01-16T04:08:52;4.00;;;3.33;;
10945;SDS011;5525;42.648;23.368;2024-01-16T04:11:19;3.42;;;3.13;;
10945;SDS011;5525;42.648;23.368;2024-01-16T04:13:46;3.83;;;3.30;;
10945;SDS011;5525;42.648;23.368;2024-01-16T04:16:13;3.38;;;3.08;;
10945;SDS011;5525;42.648;23.368;2024-01-16T04:18:40;3.08;;;2.78;;
10945;SDS011;5525;42.648;23.368;2024-01-16T04:21:08;3.20;;;2.53;;
10945;SDS011;5525;42.648;23.368;2024-01-16T04:23:35;3.53;;;2.45;;
10945;SDS011;5525;42.648;23.368;2024-01-16T04:26:03;2.65;;;2.45;;
10945;SDS011;5525;42.648;23.368;2024-01-16T04:28:30;2.40;;;2.20;;
10945;SDS011;5525;42.648;23.368;2024-01-16T04:30:57;2.22;;;2.03;;
10945;SDS011;5525;42.648;23.368;2024-01-16T04:33:23;1.92;;;1.80;;
10945;SDS011;5525;42.648;23.368;2024-01-16T04:35:50;2.35;;;2.13;;
10945;SDS011;5525;42.648;23.368;2024-01-16T04:38:17;2.22;;;1.90;;
10945;SDS011;5525;42.648;23.368;2024-01-16T04:40:44;2.30;;;2.10;;
10945;SDS011;5525;42.648;23.368;2024-01-16T04:43:11;2.90;;;2.08;;
10945;SDS011;5525;42.648;23.368;2024-01-16T04:45:37;2.33;;;2.13;;
10945;SDS011;5525;42.648;23.368;2024-01-16T04:48:04;2.05;;;1.85;;
10945;SDS011;5525;42.648;23.368;2024-01-16T04:50:31;1.80;;;1.70;;
10945;SDS011;5525;42.648;23.368;2024-01-16T04:52:58;1.95;;;1.75;;
10945;SDS011;5525;42.648;23.368;2024-01-16T04:55:25;2.08;;;1.88;;
10945;SDS011;5525;42.648;23.368;2024-01-16T04:57:53;1.80;;;1.70;;
10945;SDS011;5525;42.648;23.368;2024-01-16T05:00:22;1.77;;;1.60;;
10945;SDS011;5525;42.648;23.368;2024-01-16T05:02:52;2.40;;;2.20;;
10945;SDS011;5525;42.648;23.368;2024-01-16T05:05:19;2.15;;;1.95;;
10945;SDS011;5525;42.648;23.368;2024-01-16T05:07:45;7.28;;;1.80;;
10945;SDS011;5525;42.648;23.368;2024-01-16T05:10:12;2.25;;;2.00;;
10945;SDS011;5525;42.648;23.368;2024-01-16T05:12:39;2.40;;;2.15;;
10945;SDS011;5525;42.648;23.368;2024-01-16T05:15:07;1.75;;;1.65;;
10945;SDS011;5525;42.648;23.368;2024-01-16T05:17:37;2.45;;;1.88;;
10945;SDS011;5525;42.648;23.368;2024-01-16T05:20:05;1.88;;;1.70;;
10945;SDS011;5525;42.648;23.368;2024-01-16T05:22:32;2.38;;;2.10;;
10945;SDS011;5525;42.648;23.368;2024-01-16T05:24:59;2.05;;;1.85;;
10945;SDS011;5525;42.648;23.368;2024-01-16T05:27:26;1.50;;;1.40;;
10945;SDS011;5525;42.648;23.368;2024-01-16T05:29:53;1.40;;;1.30;;
10945;SDS011;5525;42.648;23.368;2024-01-16T05:32:20;1.75;;;1.50;;
10945;SDS011;5525;42.648;23.368;2024-01-16T05:34:48;2.17;;;1.70;;
10945;SDS011;5525;42.648;23.368;2024-01-16T05:37:15;1.98;;;1.85;;
10945;SDS011;5525;42.648;23.368;2024-01-16T05:39:41;2.20;;;1.90;;
10945;SDS011;5525;42.648;23.368;2024-01-16T05:42:08;1.90;;;1.50;;
10945;SDS011;5525;42.648;23.368;2024-01-16T05:44:36;1.73;;;1.50;;
10945;SDS011;5525;42.648;23.368;2024-01-16T05:47:03;2.60;;;1.70;;
10945;SDS011;5525;42.648;23.368;2024-01-16T05:49:31;1.63;;;1.52;;
10945;SDS011;5525;42.648;23.368;2024-01-16T05:51:59;1.50;;;1.40;;
10945;SDS011;5525;42.648;23.368;2024-01-16T05:54:26;2.55;;;2.05;;
10945;SDS011;5525;42.648;23.368;2024-01-16T05:56:53;2.30;;;1.85;;
10945;SDS011;5525;42.648;23.368;2024-01-16T05:59:20;2.40;;;2.00;;
10945;SDS011;5525;42.648;23.368;2024-01-16T06:01:47;5.95;;;5.25;;
10945;SDS011;5525;42.648;23.368;2024-01-16T06:04:14;2.35;;;1.70;;
10945;SDS011;5525;42.648;23.368;2024-01-16T06:06:41;2.08;;;1.88;;
10945;SDS011;5525;42.648;23.368;2024-01-16T06:09:11;2.45;;;2.25;;
10945;SDS011;5525;42.648;23.368;2024-01-16T06:11:39;3.72;;;2.38;;
10945;SDS011;5525;42.648;23.368;2024-01-16T06:14:07;2.58;;;2.22;;
10945;SDS011;5525;42.648;23.368;2024-01-16T06:16:36;2.28;;;1.70;;
10945;SDS011;5525;42.648;23.368;2024-01-16T06:19:06;2.40;;;2.15;;
10945;SDS011;5525;42.648;23.368;2024-01-16T06:21:33;2.38;;;2.17;;
10945;SDS011;5525;42.648;23.368;2024-01-16T06:24:00;2.28;;;2.08;;
10945;SDS011;5525;42.648;23.368;2024-01-16T06:26:28;2.53;;;2.33;;
10945;SDS011;5525;42.648;23.368;2024-01-16T06:28:56;2.25;;;2.00;;
10945;SDS011;5525;42.648;23.368;2024-01-16T06:31:23;2.58;;;2.38;;
10945;SDS011;5525;42.648;23.368;2024-01-16T06:33:51;2.63;;;2.40;;
10945;SDS011;5525;42.648;23.368;2024-01-16T06:36:18;2.50;;;2.30;;
10945;SDS011;5525;42.648;23.368;2024-01-16T06:38:45;3.35;;;2.53;;
10945;SDS011;5525;42.648;23.368;2024-01-16T06:41:11;3.92;;;2.45;;
10945;SDS011;5525;42.648;23.368;2024-01-16T06:43:39;3.42;;;2.50;;
10945;SDS011;5525;42.648;23.368;2024-01-16T06:46:06;2.63;;;2.42;;
10945;SDS011;5525;42.648;23.368;2024-01-16T06:48:33;2.75;;;2.50;;
10945;SDS011;5525;42.648;23.368;2024-01-16T06:51:01;3.13;;;2.40;;
10945;SDS011;5525;42.648;23.368;2024-01-16T06:53:28;2.70;;;2.00;;
10945;SDS011;5525;42.648;23.368;2024-01-16T06:55:55;2.53;;;1.98;;
10945;SDS011;5525;42.648;23.368;2024-01-16T06:58:22;1.92;;;1.40;;
10945;SDS011;5525;42.648;23.368;2024-01-16T07:00:50;1.80;;;1.50;;
10945;SDS011;5525;42.648;23.368;2024-01-16T07:03:16;2.78;;;1.60;;
10945;SDS011;5525;42.648;23.368;2024-01-16T07:05:43;3.42;;;1.80;;
10945;SDS011;5525;42.648;23.368;2024-01-16T07:08:10;3.75;;;2.08;;
10945;SDS011;5525;42.648;23.368;2024-01-16T07:10:37;5.47;;;2.42;;
10945;SDS011;5525;42.648;23.368;2024-01-16T07:13:04;2.08;;;1.50;;
10945;SDS011;5525;42.648;23.368;2024-01-16T07:15:32;1.50;;;1.35;;
10945;SDS011;5525;42.648;23.368;2024-01-16T07:18:00;2.90;;;1.50;;
10945;SDS011;5525;42.648;23.368;2024-01-16T07:20:27;1.98;;;1.60;;
10945;SDS011;5525;42.648;23.368;2024-01-16T07:22:54;2.78;;;1.50;;
10945;SDS011;5525;42.648;23.368;2024-01-16T07:25:20;2.00;;;1.65;;
10945;SDS011;5525;42.648;23.368;2024-01-16T07:27:47;1.77;;;1.52;;
10945;SDS011;5525;42.648;23.368;2024-01-16T07:30:15;2.67;;;1.35;;
10945;SDS011;5525;42.648;23.368;2024-01-16T07:32:42;1.52;;;1.30;;
10945;SDS011;5525;42.648;23.368;2024-01-16T07:35:10;1.73;;;1.40;;
10945;SDS011;5525;42.648;23.368;2024-01-16T07:37:37;2.05;;;1.42;;
10945;SDS011;5525;42.648;23.368;2024-01-16T07:40:04;1.98;;;1.65;;
10945;SDS011;5525;42.648;23.368;2024-01-16T07:42:32;1.50;;;1.40;;
10945;SDS011;5525;42.648;23.368;2024-01-16T07:45:00;2.05;;;1.52;;
10945;SDS011;5525;42.648;23.368;2024-01-16T07:47:29;1.80;;;1.58;;
10945;SDS011;5525;42.648;23.368;2024-01-16T07:49:56;2.05;;;1.60;;
10945;SDS011;5525;42.648;23.368;2024-01-16T07:52:24;3.10;;;2.17;;
10945;SDS011;5525;42.648;23.368;2024-01-16T07:54:51;1.42;;;1.33;;
10945;SDS011;5525;42.648;23.368;2024-01-16T07:57:17;2.75;;;1.90;;
10945;SDS011;5525;42.648;23.368;2024-01-16T07:59:44;1.73;;;1.63;;
10945;SDS011;5525;42.648;23.368;2024-01-16T08:02:11;4.18;;;1.80;;
10945;SDS011;5525;42.648;23.368;2024-01-16T08:04:38;3.53;;;1.70;;
10945;SDS011;5525;42.648;23.368;2024-01-16T08:07:04;2.75;;;1.85;;
10945;SDS011;5525;42.648;23.368;2024-01-16T08:09:32;2.45;;;1.95;;
10945;SDS011;5525;42.648;23.368;2024-01-16T08:12:00;2.13;;;1.70;;
10945;SDS011;5525;42.648;23.368;2024-01-16T08:14:27;2.10;;;1.88;;
10945;SDS011;5525;42.648;23.368;2024-01-16T08:16:55;2.42;;;1.90;;
10945;SDS011;5525;42.648;23.368;2024-01-16T08:19:21;2.88;;;1.58;;
10945;SDS011;5525;42.648;23.368;2024-01-16T08:21:48;2.50;;;2.13;;
10945;SDS011;5525;42.648;23.368;2024-01-16T08:24:15;2.70;;;1.85;;
10945;SDS011;5525;42.648;23.368;2024-01-16T08:26:43;1.80;;;1.50;;
10945;SDS011;5525;42.648;23.368;2024-01-16T08:29:10;1.98;;;1.50;;
10945;SDS011;5525;42.648;23.368;2024-01-16T08:31:37;2.00;;;1.33;;
10945;SDS011;5525;42.648;23.368;2024-01-16T08:34:03;1.98;;;1.60;;
10945;SDS011;5525;42.648;23.368;2024-01-16T08:36:30;2.60;;;1.80;;
10945;SDS011;5525;42.648;23.368;2024-01-16T08:38:58;2.08;;;1.88;;
10945;SDS011;5525;42.648;23.368;2024-01-16T08:41:24;2.13;;;1.90;;
10945;SDS011;5525;42.648;23.368;2024-01-16T08:43:52;2.28;;;1.85;;
10945;SDS011;5525;42.648;23.368;2024-01-16T08:46:19;1.77;;;1.40;;
10945;SDS011;5525;42.648;23.368;2024-01-16T08:48:46;2.28;;;1.60;;
10945;SDS011;5525;42.648;23.368;2024-01-16T08:51:13;1.83;;;1.65;;
10945;SDS011;5525;42.648;23.368;2024-01-16T08:53:40;2.10;;;1.58;;
10945;SDS011;5525;42.648;23.368;2024-01-16T08:56:07;1.67;;;1.40;;
10945;SDS011;5525;42.648;23.368;2024-01-16T08:58:34;2.00;;;1.42;;
10945;SDS011;5525;42.648;23.368;2024-01-16T09:01:04;1.55;;;1.38;;
10945;SDS011;5525;42.648;23.368;2024-01-16T09:03:31;1.63;;;1.20;;
10945;SDS011;5525;42.648;23.368;2024-01-16T09:05:58;3.03;;;1.42;;
10945;SDS011;5525;42.648;23.368;2024-01-16T09:08:26;2.00;;;1.40;;
10945;SDS011;5525;42.648;23.368;2024-01-16T09:10:53;3.25;;;1.40;;
10945;SDS011;5525;42.648;23.368;2024-01-16T09:13:20;1.50;;;1.40;;
10945;SDS011;5525;42.648;23.368;2024-01-16T09:15:48;1.65;;;1.55;;
10945;SDS011;5525;42.648;23.368;2024-01-16T09:18:16;1.40;;;1.30;;
10945;SDS011;5525;42.648;23.368;2024-01-16T09:20:43;1.60;;;1.50;;
10945;SDS011;5525;42.648;23.368;2024-01-16T09:23:10;2.03;;;1.70;;
10945;SDS011;5525;42.648;23.368;2024-01-16T09:25:37;2.83;;;1.67;;
10945;SDS011;5525;42.648;23.368;2024-01-16T09:28:04;2.92;;;1.98;;
10945;SDS011;5525;42.648;23.368;2024-01-16T09:30:31;3.38;;;1.90;;
10945;SDS011;5525;42.648;23.368;2024-01-16T09:32:58;2.50;;;1.80;;
10945;SDS011;5525;42.648;23.368;2024-01-16T09:35:26;3.22;;;1.70;;
10945;SDS011;5525;42.648;23.368;2024-01-16T09:37:53;3.50;;;1.95;;
10945;SDS011;5525;42.648;23.368;2024-01-16T09:40:20;1.85;;;1.60;;
10945;SDS011;5525;42.648;23.368;2024-01-16T09:42:47;3.00;;;1.80;;
10945;SDS011;5525;42.648;23.368;2024-01-16T09:45:14;2.28;;;1.70;;
10945;SDS011;5525;42.648;23.368;2024-01-16T09:47:47;2.33;;;1.83;;
10945;SDS011;5525;42.648;23.368;2024-01-16T09:50:15;3.95;;;1.63;;
10945;SDS011;5525;42.648;23.368;2024-01-16T09:52:44;4.03;;;1.48;;
10945;SDS011;5525;42.648;23.368;2024-01-16T09:55:12;2.40;;;1.58;;
10945;SDS011;5525;42.648;23.368;2024-01-16T09:57:39;3.38;;;1.60;;
10945;SDS011;5525;42.648;23.368;2024-01-16T10:00:07;4.57;;;2.28;;
10945;SDS011;5525;42.648;23.368;2024-01-16T10:02:37;4.85;;;1.90;;
10945;SDS011;5525;42.648;23.368;2024-01-16T10:05:06;3.60;;;1.90;;
10945;SDS011;5525;42.648;23.368;2024-01-16T10:07:34;2.50;;;1.83;;
10945;SDS011;5525;42.648;23.368;2024-01-16T10:10:05;1.75;;;1.50;;
10945;SDS011;5525;42.648;23.368;2024-01-16T10:12:36;2.22;;;1.55;;
10945;SDS011;5525;42.648;23.368;2024-01-16T10:15:04;1.75;;;1.50;;
10945;SDS011;5525;42.648;23.368;2024-01-16T10:17:36;1.75;;;1.50;;
10945;SDS011;5525;42.648;23.368;2024-01-16T10:20:04;2.38;;;1.40;;
10945;SDS011;5525;42.648;23.368;2024-01-16T10:22:32;4.35;;;1.73;;
10945;SDS011;5525;42.648;23.368;2024-01-16T10:25:07;1.33;;;1.23;;
10945;SDS011;5525;42.648;23.368;2024-01-16T10:27:35;1.77;;;1.40;;
10945;SDS011;5525;42.648;23.368;2024-01-16T10:30:02;2.83;;;1.65;;
10945;SDS011;5525;42.648;23.368;2024-01-16T10:32:30;1.73;;;1.52;;
10945;SDS011;5525;42.648;23.368;2024-01-16T10:35:04;4.35;;;1.55;;
10945;SDS011;5525;42.648;23.368;2024-01-16T10:37:40;2.83;;;1.80;;
10945;SDS011;5525;42.648;23.368;2024-01-16T10:40:10;1.88;;;1.60;;
10945;SDS011;5525;42.648;23.368;2024-01-16T10:42:40;3.42;;;1.70;;
10945;SDS011;5525;42.648;23.368;2024-01-16T10:45:07;2.45;;;1.60;;
10945;SDS011;5525;42.648;23.368;2024-01-16T10:47:35;2.28;;;1.73;;
10945;SDS011;5525;42.648;23.368;2024-01-16T10:50:03;1.92;;;1.77;;
10945;SDS011;5525;42.648;23.368;2024-01-16T10:52:33;2.55;;;1.90;;
10945;SDS011;5525;42.648;23.368;2024-01-16T10:55:00;3.13;;;1.88;;
10945;SDS011;5525;42.648;23.368;2024-01-16T10:57:32;1.75;;;1.45;;
10945;SDS011;5525;42.648;23.368;2024-01-16T11:00:00;4.25;;;2.00;;
10945;SDS011;5525;42.648;23.368;2024-01-16T11:02:35;1.90;;;1.42;;
10945;SDS011;5525;42.648;23.368;2024-01-16T11:05:10;3.63;;;1.60;;
10945;SDS011;5525;42.648;23.368;2024-01-16T11:07:38;1.70;;;1.50;;
10945;SDS011;5525;42.648;23.368;2024-01-16T11:10:08;2.83;;;1.73;;
10945;SDS011;5525;42.648;23.368;2024-01-16T11:12:37;4.15;;;1.98;;
10945;SDS011;5525;42.648;23.368;2024-01-16T11:15:06;2.17;;;1.50;;
10945;SDS011;5525;42.648;23.368;2024-01-16T11:17:34;1.58;;;1.30;;
10945;SDS011;5525;42.648;23.368;2024-01-16T11:20:03;2.70;;;1.98;;
10945;SDS011;5525;42.648;23.368;2024-01-16T11:22:35;3.90;;;1.70;;
10945;SDS011;5525;42.648;23.368;2024-01-16T11:25:07;2.58;;;1.88;;
10945;SDS011;5525;42.648;23.368;2024-01-16T11:27:36;3.53;;;2.30;;
10945;SDS011;5525;42.648;23.368;2024-01-16T11:30:04;3.63;;;2.38;;
10945;SDS011;5525;42.648;23.368;2024-01-16T11:32:33;5.85;;;2.72;;
10945;SDS011;5525;42.648;23.368;2024-01-16T11:35:02;2.70;;;2.20;;
10945;SDS011;5525;42.648;23.368;2024-01-16T11:37:29;3.28;;;2.78;;
10945;SDS011;5525;42.648;23.368;2024-01-16T11:43:00;2.25;;;1.92;;
10945;SDS011;5525;42.648;23.368;2024-01-16T11:46:02;2.28;;;2.00;;
10945;SDS011;5525;42.648;23.368;2024-01-16T11:48:30;3.00;;;1.73;;
10945;SDS011;5525;42.648;23.368;2024-01-16T11:50:56;2.38;;;1.85;;
10945;SDS011;5525;42.648;23.368;2024-01-16T11:53:33;3.08;;;1.60;;
10945;SDS011;5525;42.648;23.368;2024-01-16T12:02:10;4.47;;;2.72;;
10945;SDS011;5525;42.648;23.368;2024-01-16T12:04:51;3.60;;;2.60;;
10945;SDS011;5525;42.648;23.368;2024-01-16T12:07:19;4.38;;;2.50;;
10945;SDS011;5525;42.648;23.368;2024-01-16T12:09:48;3.17;;;2.65;;
10945;SDS011;5525;42.648;23.368;2024-01-16T12:12:15;5.35;;;2.83;;
10945;SDS011;5525;42.648;23.368;2024-01-16T12:14:51;3.53;;;2.90;;
10945;SDS011;5525;42.648;23.368;2024-01-16T12:17:19;6.00;;;2.72;;
10945;SDS011;5525;42.648;23.368;2024-01-16T12:19:46;6.80;;;2.30;;
10945;SDS011;5525;42.648;23.368;2024-01-16T12:22:15;4.55;;;2.60;;
10945;SDS011;5525;42.648;23.368;2024-01-16T12:24:43;2.80;;;2.15;;
10945;SDS011;5525;42.648;23.368;2024-01-16T12:27:11;3.63;;;2.25;;
10945;SDS011;5525;42.648;23.368;2024-01-16T12:29:40;4.45;;;2.45;;
10945;SDS011;5525;42.648;23.368;2024-01-16T12:32:09;2.35;;;1.83;;
10945;SDS011;5525;42.648;23.368;2024-01-16T12:34:43;2.88;;;1.90;;
10945;SDS011;5525;42.648;23.368;2024-01-16T12:37:11;3.88;;;1.90;;
10945;SDS011;5525;42.648;23.368;2024-01-16T12:39:38;5.13;;;1.95;;
10945;SDS011;5525;42.648;23.368;2024-01-16T12:42:06;3.47;;;2.30;;
10945;SDS011;5525;42.648;23.368;2024-01-16T12:44:34;2.25;;;1.80;;
10945;SDS011;5525;42.648;23.368;2024-01-16T12:47:01;4.35;;;2.22;;
10945;SDS011;5525;42.648;23.368;2024-01-16T12:49:30;3.60;;;2.00;;
10945;SDS011;5525;42.648;23.368;2024-01-16T12:54:46;3.10;;;2.03;;
10945;SDS011;5525;42.648;23.368;2024-01-16T12:57:17;4.47;;;2.20;;
10945;SDS011;5525;42.648;23.368;2024-01-16T12:59:45;4.00;;;1.90;;
10945;SDS011;5525;42.648;23.368;2024-01-16T13:02:19;3.65;;;2.40;;
10945;SDS011;5525;42.648;23.368;2024-01-16T13:04:57;3.00;;;2.70;;
10945;SDS011;5525;42.648;23.368;2024-01-16T13:07:24;3.00;;;2.13;;
10945;SDS011;5525;42.648;23.368;2024-01-16T13:12:36;3.42;;;2.47;;
10945;SDS011;5525;42.648;23.368;2024-01-16T13:15:04;4.30;;;2.53;;
10945;SDS011;5525;42.648;23.368;2024-01-16T13:17:31;9.20;;;2.92;;
10945;SDS011;5525;42.648;23.368;2024-01-16T13:20:01;8.00;;;3.45;;
10945;SDS011;5525;42.648;23.368;2024-01-16T13:22:28;2.88;;;2.28;;
10945;SDS011;5525;42.648;23.368;2024-01-16T13:24:55;3.67;;;2.30;;
10945;SDS011;5525;42.648;23.368;2024-01-16T13:27:22;5.50;;;2.50;;
10945;SDS011;5525;42.648;23.368;2024-01-16T13:29:50;5.10;;;2.55;;
10945;SDS011;5525;42.648;23.368;2024-01-16T13:32:17;5.80;;;3.85;;
10945;SDS011;5525;42.648;23.368;2024-01-16T13:34:44;6.72;;;2.70;;
10945;SDS011;5525;42.648;23.368;2024-01-16T13:37:18;4.22;;;2.70;;
10945;SDS011;5525;42.648;23.368;2024-01-16T13:39:47;4.28;;;3.85;;
10945;SDS011;5525;42.648;23.368;2024-01-16T13:42:14;4.57;;;2.70;;
10945;SDS011;5525;42.648;23.368;2024-01-16T13:44:43;7.13;;;2.10;;
10945;SDS011;5525;42.648;23.368;2024-01-16T13:47:10;6.05;;;3.03;;
10945;SDS011;5525;42.648;23.368;2024-01-16T13:49:37;3.75;;;2.65;;
10945;SDS011;5525;42.648;23.368;2024-01-16T13:52:05;4.03;;;2.72;;
10945;SDS011;5525;42.648;23.368;2024-01-16T13:54:36;3.80;;;2.33;;
10945;SDS011;5525;42.648;23.368;2024-01-16T13:57:04;4.82;;;2.58;;
10945;SDS011;5525;42.648;23.368;2024-01-16T13:59:31;4.05;;;2.50;;
10945;SDS011;5525;42.648;23.368;2024-01-16T14:01:58;5.00;;;3.08;;
10945;SDS011;5525;42.648;23.368;2024-01-16T14:04:26;3.08;;;2.78;;
10945;SDS011;5525;42.648;23.368;2024-01-16T14:06:53;3.53;;;2.50;;
10945;SDS011;5525;42.648;23.368;2024-01-16T14:09:19;4.57;;;2.75;;
10945;SDS011;5525;42.648;23.368;2024-01-16T14:11:48;4.82;;;2.60;;
10945;SDS011;5525;42.648;23.368;2024-01-16T14:14:14;5.45;;;2.50;;
10945;SDS011;5525;42.648;23.368;2024-01-16T14:16:41;6.38;;;2.80;;
10945;SDS011;5525;42.648;23.368;2024-01-16T14:19:08;5.45;;;3.10;;
10945;SDS011;5525;42.648;23.368;2024-01-16T14:21:34;5.40;;;3.08;;
10945;SDS011;5525;42.648;23.368;2024-01-16T14:24:01;8.15;;;3.20;;
10945;SDS011;5525;42.648;23.368;2024-01-16T14:26:28;5.43;;;4.20;;
10945;SDS011;5525;42.648;23.368;2024-01-16T14:28:56;9.13;;;3.33;;
10945;SDS011;5525;42.648;23.368;2024-01-16T14:31:23;5.55;;;3.28;;
10945;SDS011;5525;42.648;23.368;2024-01-16T14:33:51;6.30;;;3.55;;
10945;SDS011;5525;42.648;23.368;2024-01-16T14:36:19;5.28;;;2.85;;
10945;SDS011;5525;42.648;23.368;2024-01-16T14:38:45;4.60;;;3.50;;
10945;SDS011;5525;42.648;23.368;2024-01-16T14:41:13;7.18;;;3.00;;
10945;SDS011;5525;42.648;23.368;2024-01-16T14:43:41;9.93;;;3.50;;
10945;SDS011;5525;42.648;23.368;2024-01-16T14:46:10;6.00;;;3.25;;
10945;SDS011;5525;42.648;23.368;2024-01-16T14:48:37;3.97;;;3.00;;
10945;SDS011;5525;42.648;23.368;2024-01-16T14:51:04;5.35;;;2.75;;
10945;SDS011;5525;42.648;23.368;2024-01-16T14:53:31;3.15;;;2.70;;
10945;SDS011;5525;42.648;23.368;2024-01-16T14:55:58;6.75;;;2.65;;
10945;SDS011;5525;42.648;23.368;2024-01-16T14:58:24;6.20;;;2.80;;
10945;SDS011;5525;42.648;23.368;2024-01-16T15:00:51;9.00;;;3.08;;
10945;SDS011;5525;42.648;23.368;2024-01-16T15:03:20;6.75;;;3.40;;
10945;SDS011;5525;42.648;23.368;2024-01-16T15:05:47;7.50;;;3.45;;
10945;SDS011;5525;42.648;23.368;2024-01-16T15:08:17;5.20;;;3.25;;